sensor_id;sensor_type;location;lat;lon;timestamp;pressure;altitude;pressure_sealevel;temperature;humidity
46724;BME280;32463;48.298;11.620;2023-07-30T00:02:22;95966.19;;;17.07;100.00
46724;BME280;32463;48.298;11.620;2023-07-30T00:04:49;95962.19;;;16.98;100.00
46724;BME280;32463;48.298;11.620;2023-07-30T00:07:15;95973.88;;;17.02;100.00
46724;BME280;32463;48.298;11.620;2023-07-30T00:09:42;95968.66;;;16.89;100.00
46724;BME280;32463;48.298;11.620;2023-07-30T00:12:09;95969.06;;;16.86;100.00
46724;BME280;32463;48.298;11.620;2023-07-30T00:14:37;95969.91;;;16.79;100.00
46724;BME280;32463;48.298;11.620;2023-07-30T00:17:03;95982.00;;;16.80;100.00
46724;BME280;32463;48.298;11.620;2023-07-30T00:19:30;95982.97;;;16.93;100.00
46724;BME280;32463;48.298;11.620;2023-07-30T00:21:57;95977.53;;;16.88;100.00
46724;BME280;32463;48.298;11.620;2023-07-30T00:24:23;95979.13;;;16.89;100.00
46724;BME280;32463;48.298;11.620;2023-07-30T00:26:50;95977.09;;;17.04;100.00
46724;BME280;32463;48.298;11.620;2023-07-30T00:29:16;95969.03;;;16.99;100.00
46724;BME280;32463;48.298;11.620;2023-07-30T00:31:43;95965.41;;;17.00;100.00
46724;BME280;32463;48.298;11.620;2023-07-30T00:34:09;95960.78;;;17.02;100.00
46724;BME280;32463;48.298;11.620;2023-07-30T00:36:36;95966.63;;;16.97;100.00
46724;BME280;32463;48.298;11.620;2023-07-30T00:39:02;95971.06;;;16.97;100.00
46724;BME280;32463;48.298;11.620;2023-07-30T00:41:29;95974.69;;;16.96;100.00
46724;BME280;32463;48.298;11.620;2023-07-30T00:43:55;95980.31;;;17.06;100.00
46724;BME280;32463;48.298;11.620;2023-07-30T00:46:22;95981.50;;;17.03;100.00
46724;BME280;32463;48.298;11.620;2023-07-30T00:48:48;95978.28;;;17.08;100.00
46724;BME280;32463;48.298;11.620;2023-07-30T00:51:16;95977.09;;;17.04;100.00
46724;BME280;32463;48.298;11.620;2023-07-30T00:53:42;95982.31;;;17.04;100.00
46724;BME280;32463;48.298;11.620;2023-07-30T00:56:09;95986.75;;;17.10;100.00
46724;BME280;32463;48.298;11.620;2023-07-30T00:58:36;95983.94;;;17.05;100.00
46724;BME280;32463;48.298;11.620;2023-07-30T01:01:02;95989.16;;;17.05;100.00
46724;BME280;32463;48.298;11.620;2023-07-30T01:03:30;95993.81;;;17.03;100.00
46724;BME280;32463;48.298;11.620;2023-07-30T01:05:57;95984.97;;;16.97;100.00
46724;BME280;32463;48.298;11.620;2023-07-30T01:08:23;95985.94;;;17.03;100.00
46724;BME280;32463;48.298;11.620;2023-07-30T01:10:50;95984.72;;;17.05;100.00
46724;BME280;32463;48.298;11.620;2023-07-30T01:13:17;95985.53;;;17.06;100.00
46724;BME280;32463;48.298;11.620;2023-07-30T01:15:44;95983.94;;;17.05;100.00
46724;BME280;32463;48.298;11.620;2023-07-30T01:18:11;95983.53;;;17.08;100.00
46724;BME280;32463;48.298;11.620;2023-07-30T01:20:38;95977.88;;;17.11;100.00
46724;BME280;32463;48.298;11.620;2023-07-30T01:23:04;95971.63;;;17.12;100.00
46724;BME280;32463;48.298;11.620;2023-07-30T01:25:36;95986.28;;;17.13;100.00
46724;BME280;32463;48.298;11.620;2023-07-30T01:28:04;95972.63;;;17.11;100.00
46724;BME280;32463;48.298;11.620;2023-07-30T01:30:41;95974.66;;;17.09;100.00
46724;BME280;32463;48.298;11.620;2023-07-30T01:33:10;95965.34;;;17.13;100.00
46724;BME280;32463;48.298;11.620;2023-07-30T01:35:38;95974.25;;;17.12;100.00
46724;BME280;32463;48.298;11.620;2023-07-30T01:38:06;95974.84;;;17.07;100.00
46724;BME280;32463;48.298;11.620;2023-07-30T01:40:33;95976.06;;;17.05;100.00
46724;BME280;32463;48.298;11.620;2023-07-30T01:42:59;95978.91;;;17.03;100.00
46724;BME280;32463;48.298;11.620;2023-07-30T01:45:26;95983.94;;;17.05;100.00
46724;BME280;32463;48.298;11.620;2023-07-30T01:47:52;95982.94;;;16.99;100.00
46724;BME280;32463;48.298;11.620;2023-07-30T01:50:19;95974.47;;;17.04;100.00
46724;BME280;32463;48.298;11.620;2023-07-30T01:52:46;95984.94;;;17.10;100.00
46724;BME280;32463;48.298;11.620;2023-07-30T01:55:12;95974.66;;;17.09;100.00
46724;BME280;32463;48.298;11.620;2023-07-30T01:57:39;95976.59;;;17.20;100.00
46724;BME280;32463;48.298;11.620;2023-07-30T02:00:05;95978.41;;;17.20;100.00
46724;BME280;32463;48.298;11.620;2023-07-30T02:02:32;95971.03;;;17.10;100.00
46724;BME280;32463;48.298;11.620;2023-07-30T02:05:00;95973.88;;;17.02;100.00
46724;BME280;32463;48.298;11.620;2023-07-30T02:07:27;95979.69;;;17.04;100.00
46724;BME280;32463;48.298;11.620;2023-07-30T02:09:53;95974.66;;;17.09;100.00
46724;BME280;32463;48.298;11.620;2023-07-30T02:12:19;95980.69;;;17.09;100.00
46724;BME280;32463;48.298;11.620;2023-07-30T02:14:46;95989.09;;;17.18;100.00
46724;BME280;32463;48.298;11.620;2023-07-30T02:17:13;95987.44;;;17.30;100.00
46724;BME280;32463;48.298;11.620;2023-07-30T02:19:39;95990.84;;;17.37;100.00
46724;BME280;32463;48.298;11.620;2023-07-30T02:22:05;95993.06;;;17.40;100.00
46724;BME280;32463;48.298;11.620;2023-07-30T02:24:32;95982.94;;;17.44;100.00
46724;BME280;32463;48.298;11.620;2023-07-30T02:26:58;95997.28;;;17.41;100.00
46724;BME280;32463;48.298;11.620;2023-07-30T02:29:25;95994.22;;;17.44;100.00
46724;BME280;32463;48.298;11.620;2023-07-30T02:31:51;96001.06;;;17.45;100.00
46724;BME280;32463;48.298;11.620;2023-07-30T02:34:18;96003.16;;;17.30;100.00
46724;BME280;32463;48.298;11.620;2023-07-30T02:36:44;96000.84;;;17.09;100.00
46724;BME280;32463;48.298;11.620;2023-07-30T02:39:11;96007.91;;;17.02;100.00
46724;BME280;32463;48.298;11.620;2023-07-30T02:41:37;96005.69;;;16.99;100.00
46724;BME280;32463;48.298;11.620;2023-07-30T02:44:03;96016.78;;;17.01;100.00
46724;BME280;32463;48.298;11.620;2023-07-30T02:46:30;96019.00;;;17.04;100.00
46724;BME280;32463;48.298;11.620;2023-07-30T02:48:56;96025.06;;;16.84;100.00
46724;BME280;32463;48.298;11.620;2023-07-30T02:51:23;96011.00;;;16.72;100.00
46724;BME280;32463;48.298;11.620;2023-07-30T02:53:52;96018.25;;;16.70;100.00
46724;BME280;32463;48.298;11.620;2023-07-30T02:56:19;96013.84;;;16.64;100.00
46724;BME280;32463;48.298;11.620;2023-07-30T02:58:45;96017.03;;;16.53;100.00
46724;BME280;32463;48.298;11.620;2023-07-30T03:01:12;96017.88;;;16.47;100.00
46724;BME280;32463;48.298;11.620;2023-07-30T03:03:38;96008.97;;;16.55;100.00
46724;BME280;32463;48.298;11.620;2023-07-30T03:06:05;96012.03;;;16.45;100.00
46724;BME280;32463;48.298;11.620;2023-07-30T03:08:31;96013.00;;;16.57;100.00
46724;BME280;32463;48.298;11.620;2023-07-30T03:10:59;96012.81;;;16.52;100.00
46724;BME280;32463;48.298;11.620;2023-07-30T03:13:26;96011.19;;;16.51;100.00
46724;BME280;32463;48.298;11.620;2023-07-30T03:15:52;96010.19;;;16.52;100.00
46724;BME280;32463;48.298;11.620;2023-07-30T03:18:19;96015.00;;;16.62;100.00
46724;BME280;32463;48.298;11.620;2023-07-30T03:20:45;96020.47;;;16.54;100.00
46724;BME280;32463;48.298;11.620;2023-07-30T03:23:12;96025.72;;;16.47;100.00
46724;BME280;32463;48.298;11.620;2023-07-30T03:25:38;96022.69;;;16.50;100.00
46724;BME280;32463;48.298;11.620;2023-07-30T03:28:04;96018.88;;;16.39;100.00
46724;BME280;32463;48.298;11.620;2023-07-30T03:30:31;96011.81;;;16.33;100.00
46724;BME280;32463;48.298;11.620;2023-07-30T03:32:57;96023.09;;;16.27;100.00
46724;BME280;32463;48.298;11.620;2023-07-30T03:35:24;96023.91;;;16.28;100.00
46724;BME280;32463;48.298;11.620;2023-07-30T03:37:51;96018.66;;;16.21;100.00
46724;BME280;32463;48.298;11.620;2023-07-30T03:40:17;96023.91;;;16.14;100.00
46724;BME280;32463;48.298;11.620;2023-07-30T03:42:44;96021.09;;;16.09;100.00
46724;BME280;32463;48.298;11.620;2023-07-30T03:45:10;96021.09;;;16.29;100.00
46724;BME280;32463;48.298;11.620;2023-07-30T03:47:37;96024.09;;;16.33;100.00
46724;BME280;32463;48.298;11.620;2023-07-30T03:50:03;96020.28;;;16.09;100.00
46724;BME280;32463;48.298;11.620;2023-07-30T03:52:30;96015.03;;;16.02;100.00
46724;BME280;32463;48.298;11.620;2023-07-30T03:54:57;96024.69;;;15.95;100.00
46724;BME280;32463;48.298;11.620;2023-07-30T03:57:23;96022.06;;;15.95;100.00
46724;BME280;32463;48.298;11.620;2023-07-30T03:59:49;96017.44;;;15.97;100.00
46724;BME280;32463;48.298;11.620;2023-07-30T04:02:16;96024.28;;;15.98;100.00
46724;BME280;32463;48.298;11.620;2023-07-30T04:04:43;96025.28;;;15.97;100.00
46724;BME280;32463;48.298;11.620;2023-07-30T04:07:10;96023.06;;;15.94;100.00
46724;BME280;32463;48.298;11.620;2023-07-30T04:09:36;96025.28;;;15.97;100.00
46724;BME280;32463;48.298;11.620;2023-07-30T04:12:03;96032.72;;;15.87;100.00
46724;BME280;32463;48.298;11.620;2023-07-30T04:14:29;96039.56;;;15.81;100.00
46724;BME280;32463;48.298;11.620;2023-07-30T04:16:56;96034.31;;;15.81;100.00
46724;BME280;32463;48.298;11.620;2023-07-30T04:19:23;96045.59;;;15.82;100.00
46724;BME280;32463;48.298;11.620;2023-07-30T04:21:50;96035.94;;;15.82;100.00
46724;BME280;32463;48.298;11.620;2023-07-30T04:24:17;96041.16;;;15.82;100.00
46724;BME280;32463;48.298;11.620;2023-07-30T04:26:43;96045.59;;;15.82;100.00
46724;BME280;32463;48.298;11.620;2023-07-30T04:29:10;96037.34;;;15.85;100.00
46724;BME280;32463;48.298;11.620;2023-07-30T04:31:36;96041.59;;;15.86;100.00
46724;BME280;32463;48.298;11.620;2023-07-30T04:34:02;96040.38;;;15.89;100.00
46724;BME280;32463;48.298;11.620;2023-07-30T04:36:29;96043.97;;;15.94;100.00
46724;BME280;32463;48.298;11.620;2023-07-30T04:38:55;96048.44;;;16.00;100.00
46724;BME280;32463;48.298;11.620;2023-07-30T04:41:22;96052.88;;;16.06;100.00
46724;BME280;32463;48.298;11.620;2023-07-30T04:43:48;96056.91;;;16.15;100.00
46724;BME280;32463;48.298;11.620;2023-07-30T04:46:15;96061.34;;;16.15;100.00
46724;BME280;32463;48.298;11.620;2023-07-30T04:48:41;96065.75;;;16.21;100.00
46724;BME280;32463;48.298;11.620;2023-07-30T04:51:07;96068.97;;;16.30;100.00
46724;BME280;32463;48.298;11.620;2023-07-30T04:53:34;96071.00;;;16.47;100.00
46724;BME280;32463;48.298;11.620;2023-07-30T04:56:00;96068.56;;;16.59;100.00
46724;BME280;32463;48.298;11.620;2023-07-30T04:58:27;96061.94;;;16.63;100.00
46724;BME280;32463;48.298;11.620;2023-07-30T05:00:53;96070.63;;;16.70;100.00
46724;BME280;32463;48.298;11.620;2023-07-30T05:03:20;96072.19;;;16.84;100.00
46724;BME280;32463;48.298;11.620;2023-07-30T05:05:46;96073.00;;;16.92;100.00
46724;BME280;32463;48.298;11.620;2023-07-30T05:08:13;96079.03;;;16.99;100.00
46724;BME280;32463;48.298;11.620;2023-07-30T05:10:39;96082.41;;;17.12;100.00
46724;BME280;32463;48.298;11.620;2023-07-30T05:13:05;96068.88;;;17.29;100.00
46724;BME280;32463;48.298;11.620;2023-07-30T05:15:34;96076.13;;;17.33;100.00
46724;BME280;32463;48.298;11.620;2023-07-30T05:18:00;96084.59;;;17.29;100.00
46724;BME280;32463;48.298;11.620;2023-07-30T05:20:26;96079.75;;;17.32;100.00
46724;BME280;32463;48.298;11.620;2023-07-30T05:22:53;96084.19;;;17.32;100.00
46724;BME280;32463;48.298;11.620;2023-07-30T05:25:19;96079.75;;;17.32;100.00
46724;BME280;32463;48.298;11.620;2023-07-30T05:27:46;96084.59;;;17.35;100.00
46724;BME280;32463;48.298;11.620;2023-07-30T05:30:12;96071.22;;;17.43;100.00
46724;BME280;32463;48.298;11.620;2023-07-30T05:32:39;96089.34;;;17.51;100.00
46724;BME280;32463;48.298;11.620;2023-07-30T05:35:05;96092.53;;;17.60;100.00
46724;BME280;32463;48.298;11.620;2023-07-30T05:37:32;96099.00;;;17.71;100.00
46724;BME280;32463;48.298;11.620;2023-07-30T05:39:58;96101.75;;;17.82;100.00
46724;BME280;32463;48.298;11.620;2023-07-30T05:42:25;96106.56;;;17.86;100.00
46724;BME280;32463;48.298;11.620;2023-07-30T05:44:51;96103.72;;;17.94;100.00
46724;BME280;32463;48.298;11.620;2023-07-30T05:47:18;96090.47;;;18.13;100.00
46724;BME280;32463;48.298;11.620;2023-07-30T05:49:44;96096.66;;;18.26;100.00
46724;BME280;32463;48.298;11.620;2023-07-30T05:52:11;96092.09;;;18.39;100.00
46724;BME280;32463;48.298;11.620;2023-07-30T05:54:38;96094.00;;;18.64;100.00
46724;BME280;32463;48.298;11.620;2023-07-30T05:57:04;96092.97;;;18.90;100.00
46724;BME280;32463;48.298;11.620;2023-07-30T05:59:31;96092.81;;;19.03;100.00
46724;BME280;32463;48.298;11.620;2023-07-30T06:02:01;96095.16;;;19.11;100.00
46724;BME280;32463;48.298;11.620;2023-07-30T06:04:29;96102.66;;;18.89;100.00
46724;BME280;32463;48.298;11.620;2023-07-30T06:06:57;96099.66;;;18.61;100.00
46724;BME280;32463;48.298;11.620;2023-07-30T06:09:23;96096.25;;;18.54;100.00
46724;BME280;32463;48.298;11.620;2023-07-30T06:11:50;96094.00;;;18.57;100.00
46724;BME280;32463;48.298;11.620;2023-07-30T06:14:16;96094.34;;;18.67;100.00
46724;BME280;32463;48.298;11.620;2023-07-30T06:16:43;96097.31;;;18.96;100.00
46724;BME280;32463;48.298;11.620;2023-07-30T06:19:09;96099.81;;;18.91;100.00
46724;BME280;32463;48.298;11.620;2023-07-30T06:21:37;96096.63;;;19.07;100.00
46724;BME280;32463;48.298;11.620;2023-07-30T06:24:03;96101.88;;;19.07;100.00
46724;BME280;32463;48.298;11.620;2023-07-30T06:26:30;96094.50;;;19.34;100.00
46724;BME280;32463;48.298;11.620;2023-07-30T06:28:56;96096.34;;;19.15;100.00
46724;BME280;32463;48.298;11.620;2023-07-30T06:31:23;96098.53;;;19.36;100.00
46724;BME280;32463;48.298;11.620;2023-07-30T06:33:50;96090.22;;;19.58;100.00
46724;BME280;32463;48.298;11.620;2023-07-30T06:36:16;96095.47;;;19.76;100.00
46724;BME280;32463;48.298;11.620;2023-07-30T06:38:43;96090.22;;;19.76;100.00
46724;BME280;32463;48.298;11.620;2023-07-30T06:41:10;96092.09;;;19.87;100.00
46724;BME280;32463;48.298;11.620;2023-07-30T06:43:37;96090.03;;;19.89;100.00
46724;BME280;32463;48.298;11.620;2023-07-30T06:46:03;96088.38;;;20.06;100.00
46724;BME280;32463;48.298;11.620;2023-07-30T06:48:30;96099.06;;;20.11;100.00
46724;BME280;32463;48.298;11.620;2023-07-30T06:50:57;96087.72;;;20.41;100.00
46724;BME280;32463;48.298;11.620;2023-07-30T06:53:23;96091.50;;;20.45;100.00
46724;BME280;32463;48.298;11.620;2023-07-30T06:55:50;96095.84;;;20.51;100.00
46724;BME280;32463;48.298;11.620;2023-07-30T06:58:16;96102.84;;;20.57;100.00
46724;BME280;32463;48.298;11.620;2023-07-30T07:00:43;96103.69;;;20.69;100.00
46724;BME280;32463;48.298;11.620;2023-07-30T07:03:09;96098.63;;;20.68;100.00
46724;BME280;32463;48.298;11.620;2023-07-30T07:05:35;96094.94;;;20.57;100.00
46724;BME280;32463;48.298;11.620;2023-07-30T07:08:02;96100.78;;;20.59;100.00
46724;BME280;32463;48.298;11.620;2023-07-30T07:10:28;96103.34;;;20.77;100.00
46724;BME280;32463;48.298;11.620;2023-07-30T07:12:55;96101.50;;;20.78;100.00
46724;BME280;32463;48.298;11.620;2023-07-30T07:15:21;96099.56;;;20.73;100.00
46724;BME280;32463;48.298;11.620;2023-07-30T07:17:48;96104.25;;;20.83;100.00
46724;BME280;32463;48.298;11.620;2023-07-30T07:20:14;96106.91;;;20.95;100.00
46724;BME280;32463;48.298;11.620;2023-07-30T07:22:41;96104.94;;;21.13;100.00
46724;BME280;32463;48.298;11.620;2023-07-30T07:25:08;96110.81;;;21.27;100.00
46724;BME280;32463;48.298;11.620;2023-07-30T07:27:35;96106.22;;;21.34;100.00
46724;BME280;32463;48.298;11.620;2023-07-30T07:30:01;96109.50;;;21.53;100.00
46724;BME280;32463;48.298;11.620;2023-07-30T07:32:28;96111.91;;;21.55;100.00
46724;BME280;32463;48.298;11.620;2023-07-30T07:34:54;96105.53;;;21.79;100.00
46724;BME280;32463;48.298;11.620;2023-07-30T07:37:21;96107.09;;;21.51;100.00
46724;BME280;32463;48.298;11.620;2023-07-30T07:39:47;96110.31;;;21.54;100.00
46724;BME280;32463;48.298;11.620;2023-07-30T07:42:13;96115.53;;;21.77;100.00
46724;BME280;32463;48.298;11.620;2023-07-30T07:44:40;96110.69;;;21.85;100.00
46724;BME280;32463;48.298;11.620;2023-07-30T07:47:09;96110.78;;;21.91;100.00
46724;BME280;32463;48.298;11.620;2023-07-30T07:49:35;96112.00;;;22.11;100.00
46724;BME280;32463;48.298;11.620;2023-07-30T07:52:02;96114.19;;;22.03;100.00
46724;BME280;32463;48.298;11.620;2023-07-30T07:54:28;96114.84;;;22.10;100.00
46724;BME280;32463;48.298;11.620;2023-07-30T07:56:55;96116.66;;;21.81;100.00
46724;BME280;32463;48.298;11.620;2023-07-30T07:59:21;96120.44;;;21.85;100.00
46724;BME280;32463;48.298;11.620;2023-07-30T08:01:47;96120.34;;;21.80;100.00
46724;BME280;32463;48.298;11.620;2023-07-30T08:04:14;96120.75;;;21.48;100.00
46724;BME280;32463;48.298;11.620;2023-07-30T08:06:40;96117.81;;;21.33;100.00
46724;BME280;32463;48.298;11.620;2023-07-30T08:09:07;96126.19;;;21.30;100.00
46724;BME280;32463;48.298;11.620;2023-07-30T08:11:33;96113.56;;;21.84;100.00
46724;BME280;32463;48.298;11.620;2023-07-30T08:14:00;96115.84;;;22.21;100.00
46724;BME280;32463;48.298;11.620;2023-07-30T08:16:26;96120.16;;;22.55;100.00
46724;BME280;32463;48.298;11.620;2023-07-30T08:18:53;96111.94;;;22.85;100.00
46724;BME280;32463;48.298;11.620;2023-07-30T08:21:20;96111.84;;;23.13;100.00
46724;BME280;32463;48.298;11.620;2023-07-30T08:23:47;96102.66;;;22.82;100.00
46724;BME280;32463;48.298;11.620;2023-07-30T08:26:13;96110.88;;;23.03;100.00
46724;BME280;32463;48.298;11.620;2023-07-30T08:28:40;96105.19;;;22.77;100.00
46724;BME280;32463;48.298;11.620;2023-07-30T08:31:06;96106.78;;;23.12;100.00
46724;BME280;32463;48.298;11.620;2023-07-30T08:33:33;96101.56;;;23.56;100.00
46724;BME280;32463;48.298;11.620;2023-07-30T08:35:59;96101.22;;;23.30;100.00
46724;BME280;32463;48.298;11.620;2023-07-30T08:38:26;96102.88;;;23.36;100.00
46724;BME280;32463;48.298;11.620;2023-07-30T08:40:52;96101.03;;;22.98;100.00
46724;BME280;32463;48.298;11.620;2023-07-30T08:43:19;96097.66;;;22.69;100.00
46724;BME280;32463;48.298;11.620;2023-07-30T08:45:45;96104.47;;;22.99;100.00
46724;BME280;32463;48.298;11.620;2023-07-30T08:48:12;96102.09;;;23.36;100.00
46724;BME280;32463;48.298;11.620;2023-07-30T08:50:39;96084.72;;;23.62;100.00
46724;BME280;32463;48.298;11.620;2023-07-30T08:53:07;96079.19;;;24.39;100.00
46724;BME280;32463;48.298;11.620;2023-07-30T08:55:34;96081.06;;;24.70;92.69
46724;BME280;32463;48.298;11.620;2023-07-30T08:58:04;96079.44;;;24.69;91.10
46724;BME280;32463;48.298;11.620;2023-07-30T09:00:34;96072.16;;;25.29;86.57
46724;BME280;32463;48.298;11.620;2023-07-30T09:03:02;96079.19;;;25.03;89.07
46724;BME280;32463;48.298;11.620;2023-07-30T09:05:30;96069.13;;;25.10;86.30
46724;BME280;32463;48.298;11.620;2023-07-30T09:07:57;96070.19;;;25.04;83.91
46724;BME280;32463;48.298;11.620;2023-07-30T09:10:25;96070.59;;;24.91;80.39
46724;BME280;32463;48.298;11.620;2023-07-30T09:12:53;96064.91;;;24.72;82.20
46724;BME280;32463;48.298;11.620;2023-07-30T09:15:32;96061.72;;;25.12;76.41
46724;BME280;32463;48.298;11.620;2023-07-30T09:18:00;96065.44;;;25.11;78.87
46724;BME280;32463;48.298;11.620;2023-07-30T09:20:27;96057.91;;;24.29;88.68
46724;BME280;32463;48.298;11.620;2023-07-30T09:22:56;96054.84;;;24.42;90.04
46724;BME280;32463;48.298;11.620;2023-07-30T09:25:23;96056.59;;;24.63;85.30
46724;BME280;32463;48.298;11.620;2023-07-30T09:27:52;96047.00;;;24.57;83.86
46724;BME280;32463;48.298;11.620;2023-07-30T09:30:23;96049.06;;;24.50;89.71
46724;BME280;32463;48.298;11.620;2023-07-30T09:32:54;96039.16;;;25.04;85.19
46724;BME280;32463;48.298;11.620;2023-07-30T09:35:21;96046.66;;;25.80;79.03
46724;BME280;32463;48.298;11.620;2023-07-30T09:37:50;96042.94;;;25.81;79.12
46724;BME280;32463;48.298;11.620;2023-07-30T09:40:17;96037.75;;;26.57;71.49
46724;BME280;32463;48.298;11.620;2023-07-30T09:42:45;96051.81;;;25.49;74.34
46724;BME280;32463;48.298;11.620;2023-07-30T09:45:21;96042.47;;;26.14;69.38
46724;BME280;32463;48.298;11.620;2023-07-30T09:47:49;96037.66;;;25.91;68.89
46724;BME280;32463;48.298;11.620;2023-07-30T09:50:16;96040.22;;;25.71;70.51
46724;BME280;32463;48.298;11.620;2023-07-30T09:52:43;96047.06;;;25.57;67.57
46724;BME280;32463;48.298;11.620;2023-07-30T09:55:10;96037.88;;;25.17;69.79
46724;BME280;32463;48.298;11.620;2023-07-30T09:57:37;96052.41;;;25.62;68.35
46724;BME280;32463;48.298;11.620;2023-07-30T10:00:06;96040.25;;;25.66;63.07
46724;BME280;32463;48.298;11.620;2023-07-30T10:02:40;96042.28;;;25.54;62.77
46724;BME280;32463;48.298;11.620;2023-07-30T10:05:10;96047.41;;;25.13;63.96
46724;BME280;32463;48.298;11.620;2023-07-30T10:07:41;96046.09;;;25.15;63.13
46724;BME280;32463;48.298;11.620;2023-07-30T10:10:09;96041.91;;;25.97;62.13
46724;BME280;32463;48.298;11.620;2023-07-30T10:12:37;96063.72;;;26.14;60.43
46724;BME280;32463;48.298;11.620;2023-07-30T10:15:06;96053.41;;;26.69;60.18
46724;BME280;32463;48.298;11.620;2023-07-30T10:17:33;96061.13;;;26.40;60.17
46724;BME280;32463;48.298;11.620;2023-07-30T10:20:20;96052.78;;;25.91;59.43
46724;BME280;32463;48.298;11.620;2023-07-30T10:22:52;96064.56;;;25.52;62.97
46724;BME280;32463;48.298;11.620;2023-07-30T10:25:21;96057.41;;;24.32;66.60
46724;BME280;32463;48.298;11.620;2023-07-30T10:27:50;96062.50;;;24.11;69.73
46724;BME280;32463;48.298;11.620;2023-07-30T10:30:18;96065.78;;;23.97;71.80
46724;BME280;32463;48.298;11.620;2023-07-30T10:32:58;96060.69;;;23.90;73.87
46724;BME280;32463;48.298;11.620;2023-07-30T10:35:42;96062.97;;;24.62;71.15
46724;BME280;32463;48.298;11.620;2023-07-30T10:38:13;96068.25;;;24.03;70.45
46724;BME280;32463;48.298;11.620;2023-07-30T10:40:40;96066.88;;;24.55;72.02
46724;BME280;32463;48.298;11.620;2023-07-30T10:43:16;96058.72;;;24.29;71.19
46724;BME280;32463;48.298;11.620;2023-07-30T10:45:50;96069.41;;;24.39;72.05
46724;BME280;32463;48.298;11.620;2023-07-30T10:48:20;96061.56;;;24.92;72.32
46724;BME280;32463;48.298;11.620;2023-07-30T10:50:55;96067.22;;;25.52;67.49
46724;BME280;32463;48.298;11.620;2023-07-30T10:53:21;96058.13;;;25.33;66.61
46724;BME280;32463;48.298;11.620;2023-07-30T10:55:48;96054.66;;;25.90;64.28
46724;BME280;32463;48.298;11.620;2023-07-30T10:58:15;96049.91;;;26.12;62.22
46724;BME280;32463;48.298;11.620;2023-07-30T11:00:41;96057.41;;;26.71;58.49
46724;BME280;32463;48.298;11.620;2023-07-30T11:03:08;96065.88;;;26.33;59.02
46724;BME280;32463;48.298;11.620;2023-07-30T11:05:38;96064.00;;;26.18;60.09
46724;BME280;32463;48.298;11.620;2023-07-30T11:08:05;96058.47;;;26.45;59.46
46724;BME280;32463;48.298;11.620;2023-07-30T11:10:41;96069.09;;;26.40;59.73
46724;BME280;32463;48.298;11.620;2023-07-30T11:13:08;96064.72;;;25.88;58.82
46724;BME280;32463;48.298;11.620;2023-07-30T11:15:41;96068.72;;;25.28;63.51
46724;BME280;32463;48.298;11.620;2023-07-30T11:18:08;96071.69;;;25.37;62.70
46724;BME280;32463;48.298;11.620;2023-07-30T11:20:34;96074.06;;;25.38;63.49
46724;BME280;32463;48.298;11.620;2023-07-30T11:23:02;96084.38;;;24.93;67.32
46724;BME280;32463;48.298;11.620;2023-07-30T11:25:28;96083.53;;;25.76;64.11
46724;BME280;32463;48.298;11.620;2023-07-30T11:27:55;96094.44;;;24.91;64.46
46724;BME280;32463;48.298;11.620;2023-07-30T11:30:22;96099.13;;;24.78;63.99
46724;BME280;32463;48.298;11.620;2023-07-30T11:32:48;96104.66;;;24.18;68.06
46724;BME280;32463;48.298;11.620;2023-07-30T11:35:16;96106.63;;;23.79;71.47
46724;BME280;32463;48.298;11.620;2023-07-30T11:37:43;96100.22;;;24.24;70.02
46724;BME280;32463;48.298;11.620;2023-07-30T11:40:10;96117.91;;;24.40;67.08
46724;BME280;32463;48.298;11.620;2023-07-30T11:42:37;96121.63;;;25.08;63.79
46724;BME280;32463;48.298;11.620;2023-07-30T11:45:20;96103.47;;;24.90;60.93
46724;BME280;32463;48.298;11.620;2023-07-30T11:47:47;96114.22;;;24.46;62.87
46724;BME280;32463;48.298;11.620;2023-07-30T11:50:14;96121.09;;;23.93;65.16
46724;BME280;32463;48.298;11.620;2023-07-30T11:53:10;96112.81;;;23.90;65.07
46724;BME280;32463;48.298;11.620;2023-07-30T11:55:38;96112.09;;;22.78;81.93
46724;BME280;32463;48.298;11.620;2023-07-30T11:58:06;96119.06;;;22.23;100.00
46724;BME280;32463;48.298;11.620;2023-07-30T12:00:33;96116.09;;;22.19;100.00
46724;BME280;32463;48.298;11.620;2023-07-30T12:03:03;96112.72;;;23.19;100.00
46724;BME280;32463;48.298;11.620;2023-07-30T12:05:34;96104.72;;;24.23;90.21
46724;BME280;32463;48.298;11.620;2023-07-30T12:08:05;96111.38;;;24.52;84.01
46724;BME280;32463;48.298;11.620;2023-07-30T12:10:43;96110.66;;;24.62;80.80
46724;BME280;32463;48.298;11.620;2023-07-30T12:13:18;96113.63;;;24.98;78.67
46724;BME280;32463;48.298;11.620;2023-07-30T12:15:52;96110.00;;;25.56;72.40
46724;BME280;32463;48.298;11.620;2023-07-30T12:18:20;96098.09;;;26.67;65.93
46724;BME280;32463;48.298;11.620;2023-07-30T12:20:47;96100.50;;;27.09;61.18
46724;BME280;32463;48.298;11.620;2023-07-30T12:23:15;96110.53;;;27.32;58.04
46724;BME280;32463;48.298;11.620;2023-07-30T12:25:42;96108.28;;;28.39;56.49
46724;BME280;32463;48.298;11.620;2023-07-30T12:28:09;96109.44;;;28.23;55.08
46724;BME280;32463;48.298;11.620;2023-07-30T12:30:35;96118.00;;;27.35;57.35
46724;BME280;32463;48.298;11.620;2023-07-30T12:33:03;96123.78;;;27.68;56.66
46724;BME280;32463;48.298;11.620;2023-07-30T12:35:31;96119.19;;;29.11;51.91
46724;BME280;32463;48.298;11.620;2023-07-30T12:37:58;96133.88;;;29.66;49.98
46724;BME280;32463;48.298;11.620;2023-07-30T12:40:25;96138.41;;;29.66;49.79
46724;BME280;32463;48.298;11.620;2023-07-30T12:42:55;96148.19;;;28.00;53.22
46724;BME280;32463;48.298;11.620;2023-07-30T12:45:23;96141.34;;;26.27;69.43